Time;durP1;ratioP1;P1;durP2;ratioP2;P2;SDS_P1;SDS_P2;PMS_P1;PMS_P2;Temp;Humidity;BMP_temperature;BMP_pressure;BME280_temperature;BME280_humidity;BME280_pressure;Samples;Min_cycle;Max_cycle;Signal;HPM_P1;HPM_P2
2023/02/20 00:01:52;;;;;;;2.10;1.27;;;2.30;99.90;;;;;;4159916;28;20282;-66
2023/02/20 00:03:53;;;;;;;2.40;1.80;;;2.30;99.90;;;;;;4161974;28;20293;-61
2023/02/20 00:05:54;;;;;;;3.77;1.83;;;2.30;99.90;;;;;;4160992;28;20282;-61
2023/02/20 00:07:55;;;;;;;3.67;2.40;;;2.30;99.90;;;;;;4147312;28;20287;-62
2023/02/20 00:09:56;;;;;;;3.37;2.27;;;2.30;99.90;;;;;;4151325;28;20278;-62
2023/02/20 00:11:57;;;;;;;3.37;1.80;;;2.30;99.90;;;;;;4162322;28;20266;-72
2023/02/20 00:13:59;;;;;;;3.37;2.10;;;2.30;99.90;;;;;;4159529;28;20592;-62
2023/02/20 00:16:00;;;;;;;2.87;1.93;;;2.30;99.90;;;;;;4161452;28;20267;-62
2023/02/20 00:18:01;;;;;;;2.80;1.83;;;2.30;99.90;;;;;;4160434;28;20278;-62
2023/02/20 00:20:03;;;;;;;3.77;2.40;;;2.30;99.90;;;;;;4135202;28;20272;-62
2023/02/20 00:22:04;;;;;;;4.27;2.03;;;2.30;99.90;;;;;;4141489;28;20276;-62
2023/02/20 00:24:06;;;;;;;3.03;2.47;;;2.30;99.90;;;;;;4155635;28;20287;-63
2023/02/20 00:26:11;;;;;;;3.83;2.30;;;2.30;99.90;;;;;;4146661;28;20263;-61
2023/02/20 00:28:12;;;;;;;5.80;2.53;;;2.30;99.90;;;;;;4145494;28;20275;-62
2023/02/20 00:30:19;;;;;;;5.07;2.70;;;2.30;99.90;;;;;;4159835;28;20662;-65
2023/02/20 00:32:21;;;;;;;5.13;2.30;;;2.30;99.90;;;;;;4148406;28;20849;-62
2023/02/20 00:34:23;;;;;;;4.60;2.40;;;2.30;99.90;;;;;;4143919;28;20718;-67
2023/02/20 00:36:24;;;;;;;4.00;2.00;;;2.30;99.90;;;;;;4144147;28;20272;-72
2023/02/20 00:38:27;;;;;;;3.73;2.17;;;2.40;99.90;;;;;;4146666;28;20291;-69
2023/02/20 00:40:28;;;;;;;3.23;2.07;;;2.30;99.90;;;;;;4144286;28;20275;-68
2023/02/20 00:42:29;;;;;;;2.43;2.00;;;2.40;99.90;;;;;;4145608;28;20325;-63
2023/02/20 00:44:30;;;;;;;4.20;2.30;;;2.30;99.90;;;;;;4150463;28;20832;-70
2023/02/20 00:46:31;;;;;;;3.70;2.63;;;2.30;99.90;;;;;;4161590;28;20294;-69
2023/02/20 00:48:32;;;;;;;3.03;2.33;;;2.40;99.90;;;;;;4160425;28;20290;-61
2023/02/20 00:50:33;;;;;;;3.70;2.07;;;2.40;99.90;;;;;;4161834;28;20671;-62
2023/02/20 00:52:35;;;;;;;6.63;2.23;;;2.40;99.90;;;;;;4149736;28;20299;-68
2023/02/20 00:54:36;;;;;;;7.27;2.20;;;2.40;99.90;;;;;;4145364;28;20278;-67
2023/02/20 00:56:37;;;;;;;3.13;2.10;;;2.40;99.90;;;;;;4144676;28;20671;-61
2023/02/20 00:58:38;;;;;;;5.20;2.27;;;2.40;99.90;;;;;;4145091;28;20330;-61
2023/02/20 01:00:41;;;;;;;2.93;2.30;;;2.40;99.90;;;;;;4144856;28;20330;-62
2023/02/20 01:02:42;;;;;;;2.60;2.00;;;2.40;99.90;;;;;;4144655;28;20283;-64
2023/02/20 01:04:43;;;;;;;5.10;2.40;;;2.40;99.90;;;;;;4144898;28;20259;-61
2023/02/20 01:06:44;;;;;;;4.27;2.47;;;2.40;99.90;;;;;;4143948;28;20325;-60
2023/02/20 01:08:46;;;;;;;3.53;1.90;;;2.40;99.90;;;;;;4146235;28;20275;-65
2023/02/20 01:10:47;;;;;;;4.00;2.73;;;2.40;99.90;;;;;;4156059;28;20321;-68
2023/02/20 01:12:48;;;;;;;3.77;2.33;;;2.40;99.90;;;;;;4157432;28;21115;-61
2023/02/20 01:14:49;;;;;;;5.40;2.53;;;2.40;99.90;;;;;;4148543;28;20328;-61
2023/02/20 01:16:52;;;;;;;2.70;2.20;;;2.40;99.90;;;;;;4156392;28;20283;-65
2023/02/20 01:18:53;;;;;;;3.17;2.47;;;2.40;99.90;;;;;;4145344;28;20682;-65
2023/02/20 01:20:54;;;;;;;3.90;2.60;;;2.40;99.90;;;;;;4159638;28;20278;-69
2023/02/20 01:22:55;;;;;;;5.60;2.50;;;2.40;99.90;;;;;;4158210;28;20267;-61
2023/02/20 01:24:56;;;;;;;4.67;2.33;;;2.40;99.90;;;;;;4145349;28;20306;-61
2023/02/20 01:26:57;;;;;;;3.77;2.30;;;2.30;99.90;;;;;;4157609;28;20259;-61
2023/02/20 01:28:58;;;;;;;3.73;2.50;;;2.30;99.90;;;;;;4161088;28;20267;-61
2023/02/20 01:31:00;;;;;;;4.37;2.57;;;2.30;99.90;;;;;;4163964;28;20251;-61
2023/02/20 01:33:01;;;;;;;7.90;2.93;;;2.30;99.90;;;;;;4158979;28;20298;-60
2023/02/20 01:35:02;;;;;;;5.30;2.90;;;2.20;99.90;;;;;;4162435;28;20661;-61
2023/02/20 01:37:03;;;;;;;4.90;3.30;;;2.20;99.90;;;;;;4163160;28;20267;-61
2023/02/20 01:39:05;;;;;;;4.20;2.60;;;2.10;99.90;;;;;;4155511;28;20374;-61
2023/02/20 01:41:08;;;;;;;4.70;2.43;;;2.10;99.90;;;;;;4157290;28;20313;-63
2023/02/20 01:43:10;;;;;;;3.77;2.47;;;2.10;99.90;;;;;;4149636;28;20268;-61
2023/02/20 01:45:23;;;;;;;3.67;2.20;;;2.10;99.90;;;;;;4146727;28;20821;-62
2023/02/20 01:47:24;;;;;;;7.23;2.17;;;2.10;99.90;;;;;;4157808;28;20274;-60
2023/02/20 01:49:45;;;;;;;5.47;2.63;;;2.10;99.90;;;;;;4163095;28;20360;-68
2023/02/20 01:51:53;;;;;;;5.60;2.60;;;2.10;99.90;;;;;;4163812;28;20725;-61
2023/02/20 01:53:55;;;;;;;5.97;2.33;;;2.10;99.90;;;;;;4163333;28;20302;-59
2023/02/20 01:56:01;;;;;;;4.63;2.07;;;2.10;99.90;;;;;;4164361;28;20274;-61
2023/02/20 01:58:09;;;;;;;3.20;2.10;;;2.10;99.90;;;;;;4161144;28;20275;-61
2023/02/20 02:00:18;;;;;;;2.90;2.43;;;2.10;99.90;;;;;;4157872;28;20352;-60
2023/02/20 02:02:23;;;;;;;5.00;3.13;;;2.00;99.90;;;;;;4146928;28;20263;-65
2023/02/20 02:04:25;;;;;;;4.07;2.30;;;2.00;99.90;;;;;;4148733;28;20275;-61
2023/02/20 02:06:28;;;;;;;3.23;1.83;;;2.00;99.90;;;;;;4146772;28;20699;-68
2023/02/20 02:08:29;;;;;;;5.00;2.13;;;2.00;99.90;;;;;;4147891;28;20317;-62
2023/02/20 02:10:58;;;;;;;6.33;2.30;;;1.90;99.90;;;;;;4151582;28;20283;-61
2023/02/20 02:12:59;;;;;;;4.43;2.03;;;1.90;99.90;;;;;;4143398;28;20307;-64
2023/02/20 02:15:01;;;;;;;5.53;2.20;;;2.00;99.90;;;;;;4146667;28;20333;-63
2023/02/20 02:17:21;;;;;;;4.23;1.73;;;1.90;99.90;;;;;;4147923;28;20310;-61
2023/02/20 02:19:38;;;;;;;5.15;1.52;;;1.90;99.90;;;;;;4147657;28;20279;-61
2023/02/20 02:21:44;;;;;;;4.37;2.67;;;1.90;99.90;;;;;;4147533;28;20034;-64
2023/02/20 02:24:27;;;;;;;4.57;2.27;;;1.90;99.90;;;;;;4146608;28;20268;-61
2023/02/20 02:26:34;;;;;;;4.73;2.27;;;1.90;99.90;;;;;;4155392;28;20328;-64
2023/02/20 02:28:53;;;;;;;3.37;2.40;;;1.90;99.90;;;;;;4161389;28;20274;-63
2023/02/20 02:31:12;;;;;;;6.43;3.97;;;1.80;99.90;;;;;;4156952;28;20338;-60
2023/02/20 02:33:19;;;;;;;4.70;2.57;;;1.80;99.90;;;;;;4146180;28;20303;-68
2023/02/20 02:35:48;;;;;;;4.60;2.53;;;1.80;99.90;;;;;;4152255;28;20743;-63
2023/02/20 02:38:13;;;;;;;7.37;3.07;;;1.80;99.90;;;;;;4158306;28;20274;-61
2023/02/20 02:40:37;;;;;;;5.10;2.03;;;1.80;99.90;;;;;;4141688;28;20271;-61
2023/02/20 02:42:57;;;;;;;3.60;2.60;;;1.70;99.90;;;;;;4155307;28;20752;-63
2023/02/20 02:45:07;;;;;;;6.03;2.30;;;1.70;99.90;;;;;;4146126;28;20330;-62
2023/02/20 02:47:14;;;;;;;7.27;2.57;;;1.60;99.90;;;;;;4147455;28;20298;-68
2023/02/20 02:49:31;;;;;;;3.97;2.43;;;1.60;99.90;;;;;;4155404;28;21301;-67
2023/02/20 02:51:37;;;;;;;5.03;2.50;;;1.60;99.90;;;;;;4154419;28;20271;-62
2023/02/20 02:53:38;;;;;;;6.13;2.70;;;1.60;99.90;;;;;;4145475;28;20303;-62
2023/02/20 02:55:40;;;;;;;6.63;3.07;;;1.50;99.90;;;;;;4149184;28;20361;-65
2023/02/20 02:57:42;;;;;;;5.00;2.50;;;1.50;99.90;;;;;;4162969;28;20263;-71
2023/02/20 02:59:46;;;;;;;3.50;2.20;;;1.50;99.90;;;;;;4162660;28;20275;-64
2023/02/20 03:01:52;;;;;;;4.27;2.13;;;1.50;99.90;;;;;;4155639;28;20275;-70
2023/02/20 03:03:55;;;;;;;2.93;2.37;;;1.40;99.90;;;;;;4145924;28;20322;-71
2023/02/20 03:06:03;;;;;;;6.43;2.77;;;1.40;99.90;;;;;;4146215;28;20299;-68
2023/02/20 03:08:13;;;;;;;5.17;2.40;;;1.30;99.90;;;;;;4146131;28;20313;-65
2023/02/20 03:10:19;;;;;;;4.05;2.42;;;1.40;99.90;;;;;;4152315;28;20313;-68
2023/02/20 03:12:23;;;;;;;9.20;3.13;;;1.30;99.90;;;;;;4160502;28;20079;-68
2023/02/20 03:17:38;;;;;;;6.07;2.87;;;1.30;99.90;;;;;;4129480;28;20276;-61
2023/02/20 03:19:48;;;;;;;6.47;3.37;;;1.30;99.90;;;;;;4138923;28;20674;-61
2023/02/20 03:21:50;;;;;;;7.17;2.87;;;1.20;99.90;;;;;;4157919;28;20313;-65
2023/02/20 03:23:57;;;;;;;6.07;2.63;;;1.20;99.90;;;;;;4145553;28;20263;-62
2023/02/20 03:26:16;;;;;;;5.87;3.10;;;1.20;99.90;;;;;;4147611;28;20314;-61
2023/02/20 03:28:30;;;;;;;5.07;2.77;;;1.20;99.90;;;;;;4152875;28;20312;-62
2023/02/20 03:31:03;;;;;;;5.93;2.33;;;1.20;99.90;;;;;;4162879;28;20337;-62
2023/02/20 03:45:09;;;;;;;7.67;2.77;;;1.10;99.90;;;;;;4157223;28;20263;-63
2023/02/20 03:47:13;;;;;;;14.13;4.43;;;1.10;99.90;;;;;;4145687;28;20264;-63
2023/02/20 03:49:22;;;;;;;5.37;2.50;;;1.00;99.90;;;;;;4145731;28;20810;-61
2023/02/20 03:53:44;;;;;;;7.73;3.27;;;1.00;99.90;;;;;;4150222;28;20294;-60
2023/02/20 03:55:47;;;;;;;9.30;2.63;;;1.00;99.90;;;;;;4160033;28;20354;-72
2023/02/20 03:57:54;;;;;;;7.27;2.50;;;1.00;99.90;;;;;;4162413;28;20773;-68
2023/02/20 04:00:09;;;;;;;5.90;2.80;;;1.00;99.90;;;;;;4161351;28;20739;-60
2023/02/20 04:02:24;;;;;;;9.43;3.70;;;1.00;99.90;;;;;;4155098;28;20313;-60
2023/02/20 04:04:37;;;;;;;9.70;3.10;;;1.00;99.90;;;;;;4161995;28;20697;-62
2023/02/20 04:06:40;;;;;;;8.67;3.50;;;1.00;99.90;;;;;;4161021;28;20319;-67
2023/02/20 04:08:57;;;;;;;5.30;2.97;;;1.00;99.90;;;;;;4161494;28;20317;-68
2023/02/20 04:11:14;;;;;;;7.73;3.73;;;1.00;99.90;;;;;;4149694;28;20318;-62
2023/02/20 04:13:16;;;;;;;7.97;4.57;;;1.00;99.90;;;;;;4129275;28;20602;-60
2023/02/20 04:15:20;;;;;;;5.50;2.80;;;1.00;99.90;;;;;;4156440;28;20286;-60
2023/02/20 04:17:26;;;;;;;7.87;3.97;;;1.00;99.90;;;;;;4145113;28;20325;-69
2023/02/20 04:19:27;;;;;;;10.73;3.93;;;1.00;99.90;;;;;;4150827;28;20309;-61
2023/02/20 04:21:51;;;;;;;8.33;3.53;;;1.00;99.90;;;;;;4159906;28;20266;-61
2023/02/20 04:24:05;;;;;;;8.07;3.43;;;1.00;99.90;;;;;;4143343;28;20714;-63
2023/02/20 04:26:12;;;;;;;6.13;3.13;;;1.00;99.90;;;;;;4144839;28;20333;-61
2023/02/20 04:28:14;;;;;;;6.10;2.73;;;1.00;99.90;;;;;;4143853;28;20330;-65
2023/02/20 04:30:15;;;;;;;5.33;2.70;;;1.00;99.90;;;;;;4152981;28;20670;-64
2023/02/20 04:32:16;;;;;;;6.13;2.63;;;1.00;99.90;;;;;;4145077;28;20326;-67
2023/02/20 04:34:17;;;;;;;6.13;2.57;;;1.00;99.90;;;;;;4144552;28;20691;-61
2023/02/20 04:36:19;;;;;;;7.63;3.80;;;1.00;99.90;;;;;;4145083;28;20394;-62
2023/02/20 04:38:20;;;;;;;7.60;3.03;;;1.00;99.90;;;;;;4150737;28;20313;-62
2023/02/20 04:40:23;;;;;;;9.30;3.67;;;1.00;99.90;;;;;;4160027;28;20280;-72
2023/02/20 04:42:24;;;;;;;5.27;3.17;;;1.00;99.90;;;;;;4146018;28;20259;-62
2023/02/20 04:44:32;;;;;;;8.70;3.27;;;1.00;99.90;;;;;;4142717;28;20556;-63
2023/02/20 04:46:33;;;;;;;7.20;3.67;;;0.90;99.90;;;;;;4151832;28;20259;-62
2023/02/20 04:48:35;;;;;;;5.87;3.03;;;1.00;99.90;;;;;;4161769;28;21272;-73
2023/02/20 04:50:36;;;;;;;9.50;3.90;;;0.90;99.90;;;;;;4152903;28;20345;-70
2023/02/20 04:52:37;;;;;;;10.83;3.80;;;1.00;99.90;;;;;;4145255;28;20279;-66
2023/02/20 04:54:38;;;;;;;5.80;3.47;;;1.00;99.90;;;;;;4143989;28;20287;-63
2023/02/20 04:56:39;;;;;;;6.80;3.20;;;1.00;99.90;;;;;;4144990;28;20267;-67
2023/02/20 04:58:45;;;;;;;9.97;3.93;;;1.00;99.90;;;;;;4149513;28;20317;-62
2023/02/20 05:00:47;;;;;;;7.10;2.73;;;1.00;99.90;;;;;;4147003;28;20306;-62
2023/02/20 05:02:48;;;;;;;3.03;2.30;;;1.00;99.90;;;;;;4142879;28;20833;-63
2023/02/20 05:04:49;;;;;;;6.60;2.77;;;1.00;99.90;;;;;;4144465;28;20264;-63
2023/02/20 05:06:52;;;;;;;5.67;2.87;;;1.00;99.90;;;;;;4150305;28;21158;-62
2023/02/20 05:08:53;;;;;;;8.90;5.20;;;1.10;99.90;;;;;;4159803;28;20413;-67
2023/02/20 05:10:54;;;;;;;8.27;4.40;;;1.10;99.90;;;;;;4155007;28;20271;-62
2023/02/20 05:12:56;;;;;;;11.97;6.80;;;1.10;99.90;;;;;;4144263;28;20334;-69
2023/02/20 05:14:57;;;;;;;12.43;4.80;;;1.10;99.90;;;;;;4159569;28;20294;-66
2023/02/20 05:16:58;;;;;;;6.43;3.63;;;1.10;99.90;;;;;;4153953;28;20291;-61
2023/02/20 05:19:00;;;;;;;8.43;3.33;;;1.10;99.90;;;;;;4153598;28;20278;-61
2023/02/20 05:23:20;;;;;;;9.17;4.47;;;1.10;99.90;;;;;;4158324;28;20286;-65
2023/02/20 05:25:21;;;;;;;6.93;3.23;;;1.20;99.90;;;;;;4160513;28;21061;-62
2023/02/20 05:27:23;;;;;;;7.00;2.73;;;1.10;99.90;;;;;;4153840;28;20338;-61
2023/02/20 05:29:25;;;;;;;7.67;2.73;;;1.10;99.90;;;;;;4144109;28;20260;-62
2023/02/20 05:31:26;;;;;;;5.93;2.00;;;1.20;99.90;;;;;;4153594;28;20282;-62
2023/02/20 05:33:27;;;;;;;4.67;3.10;;;1.30;99.90;;;;;;4150693;28;20661;-63
2023/02/20 05:35:28;;;;;;;7.93;3.37;;;1.50;99.90;;;;;;4144431;28;20267;-63
2023/02/20 05:37:29;;;;;;;4.67;2.70;;;1.60;99.90;;;;;;4143968;28;20330;-62
2023/02/20 05:39:30;;;;;;;6.17;2.63;;;1.80;99.90;;;;;;4148880;28;20259;-63
2023/02/20 05:41:31;;;;;;;6.30;3.10;;;1.90;99.90;;;;;;4144572;28;20264;-62
2023/02/20 05:43:32;;;;;;;4.73;3.10;;;1.80;99.90;;;;;;4159781;28;20278;-63
2023/02/20 05:45:34;;;;;;;7.53;3.00;;;1.70;99.90;;;;;;4159404;28;20275;-62
2023/02/20 05:47:38;;;;;;;5.13;2.83;;;1.70;99.90;;;;;;4160120;28;20271;-62
2023/02/20 05:49:39;;;;;;;3.37;2.13;;;1.60;99.90;;;;;;4161224;28;20554;-63
2023/02/20 05:51:40;;;;;;;5.30;2.27;;;1.60;99.90;;;;;;4159782;28;20755;-63
2023/02/20 05:53:41;;;;;;;5.97;2.67;;;1.60;99.90;;;;;;4160920;28;20368;-63
2023/02/20 05:55:42;;;;;;;8.67;3.50;;;1.60;99.90;;;;;;4159753;28;20325;-64
2023/02/20 05:57:43;;;;;;;7.97;3.17;;;1.60;99.90;;;;;;4161278;28;20317;-62
2023/02/20 05:59:44;;;;;;;5.87;2.33;;;1.50;99.90;;;;;;4160002;28;20362;-63
2023/02/20 06:01:46;;;;;;;8.50;2.73;;;1.50;99.90;;;;;;4159265;28;20275;-65
2023/02/20 06:03:47;;;;;;;9.77;3.30;;;1.50;99.90;;;;;;4159798;28;20735;-63
2023/02/20 06:05:49;;;;;;;8.60;3.80;;;1.50;99.90;;;;;;4160666;28;20306;-62
2023/02/20 06:07:50;;;;;;;7.80;2.87;;;1.50;99.90;;;;;;4159546;28;20368;-64
2023/02/20 06:09:52;;;;;;;6.30;3.33;;;1.50;99.90;;;;;;4160152;28;20360;-63
2023/02/20 06:11:55;;;;;;;7.83;3.07;;;1.50;99.90;;;;;;4160253;28;20274;-63
2023/02/20 06:13:56;;;;;;;8.13;3.03;;;1.50;99.90;;;;;;4159931;28;20345;-63
2023/02/20 06:15:57;;;;;;;8.07;3.10;;;1.50;99.90;;;;;;4163410;28;21023;-62
2023/02/20 06:17:58;;;;;;;10.43;3.43;;;1.50;99.90;;;;;;4162331;28;20266;-67
2023/02/20 06:19:59;;;;;;;7.73;3.80;;;1.60;99.90;;;;;;4163515;28;20271;-62
2023/02/20 06:22:01;;;;;;;6.73;3.57;;;1.50;99.90;;;;;;4162084;28;20685;-62
2023/02/20 06:24:02;;;;;;;18.17;8.13;;;1.60;99.90;;;;;;4163458;28;20308;-64
2023/02/20 06:26:04;;;;;;;11.33;4.87;;;1.50;99.90;;;;;;4162596;28;20670;-65
2023/02/20 06:28:05;;;;;;;6.80;3.57;;;1.50;99.90;;;;;;4164076;28;20279;-63
2023/02/20 06:30:07;;;;;;;8.77;2.90;;;1.50;99.90;;;;;;4162898;28;20409;-63
2023/02/20 06:32:08;;;;;;;9.90;3.63;;;1.50;99.90;;;;;;4163662;28;20317;-65
2023/02/20 06:34:10;;;;;;;7.23;3.63;;;1.60;99.90;;;;;;4161966;28;20337;-62
2023/02/20 06:36:22;;;;;;;7.10;3.30;;;1.60;99.90;;;;;;4163457;28;20262;-63
2023/02/20 06:38:24;;;;;;;7.43;3.77;;;1.60;99.90;;;;;;4162265;28;20650;-62
2023/02/20 06:40:25;;;;;;;7.43;3.37;;;1.70;99.90;;;;;;4163217;28;20333;-63
2023/02/20 06:42:26;;;;;;;5.50;2.93;;;1.80;99.90;;;;;;4162699;28;20596;-62
2023/02/20 06:44:27;;;;;;;5.93;2.80;;;1.80;99.90;;;;;;4162864;28;20275;-62
2023/02/20 06:46:29;;;;;;;6.07;2.30;;;1.90;99.90;;;;;;4161808;28;20266;-62
2023/02/20 06:48:30;;;;;;;10.37;3.20;;;2.00;99.90;;;;;;4162222;28;20694;-63
2023/02/20 06:50:31;;;;;;;9.03;3.33;;;2.10;99.90;;;;;;4163132;28;20255;-66
2023/02/20 06:52:32;;;;;;;6.30;3.07;;;2.20;99.90;;;;;;4160675;28;20362;-70
2023/02/20 06:54:33;;;;;;;7.90;3.07;;;2.20;99.90;;;;;;4162913;28;20345;-63
2023/02/20 06:56:35;;;;;;;8.53;2.97;;;2.20;99.90;;;;;;4162260;28;20345;-62
2023/02/20 06:58:36;;;;;;;16.67;6.97;;;2.20;99.90;;;;;;4163706;28;20544;-63
2023/02/20 07:00:37;;;;;;;13.23;3.50;;;2.30;99.90;;;;;;4162172;28;20274;-68
2023/02/20 07:02:38;;;;;;;10.60;3.80;;;2.30;99.90;;;;;;4163343;28;20270;-63
2023/02/20 07:04:40;;;;;;;7.53;3.17;;;2.30;99.90;;;;;;4161951;28;20325;-64
2023/02/20 07:06:41;;;;;;;8.43;2.67;;;2.50;99.90;;;;;;4162907;28;20746;-64
2023/02/20 07:08:42;;;;;;;6.47;2.67;;;2.70;99.90;;;;;;4161977;28;20642;-64
2023/02/20 07:10:43;;;;;;;6.63;2.43;;;3.20;99.90;;;;;;4162885;28;20727;-69
2023/02/20 07:12:44;;;;;;;8.67;2.27;;;3.80;99.90;;;;;;4162320;28;20772;-64
2023/02/20 07:14:46;;;;;;;7.93;3.73;;;4.20;99.90;;;;;;4161992;28;20294;-71
2023/02/20 07:16:47;;;;;;;9.83;3.53;;;4.40;99.90;;;;;;4162502;28;20789;-68
2023/02/20 07:18:48;;;;;;;5.03;2.97;;;4.70;99.90;;;;;;4162074;28;20317;-63
2023/02/20 07:20:50;;;;;;;8.97;2.97;;;4.80;99.90;;;;;;4162605;28;20267;-64
2023/02/20 07:22:55;;;;;;;7.90;2.67;;;5.10;99.90;;;;;;4161807;28;20348;-63
2023/02/20 07:24:57;;;;;;;3.37;1.90;;;5.20;99.90;;;;;;4162870;28;20266;-64
2023/02/20 07:26:58;;;;;;;5.90;2.10;;;5.20;99.90;;;;;;4161731;28;20337;-64
2023/02/20 07:29:02;;;;;;;7.00;2.07;;;5.30;99.90;;;;;;4163250;28;20262;-64
2023/02/20 07:31:03;;;;;;;7.13;5.03;;;5.60;99.90;;;;;;4161484;28;20271;-63
2023/02/20 07:33:04;;;;;;;3.07;2.00;;;5.90;99.90;;;;;;4162700;28;20267;-63
2023/02/20 07:35:06;;;;;;;6.27;2.97;;;6.00;99.90;;;;;;4161338;28;20333;-62
2023/02/20 07:37:07;;;;;;;20.00;9.17;;;6.00;99.90;;;;;;4162361;28;21429;-63
2023/02/20 07:39:11;;;;;;;7.87;3.70;;;6.00;99.90;;;;;;4161407;28;21071;-63
2023/02/20 07:41:14;;;;;;;5.07;2.33;;;5.90;99.90;;;;;;4162649;28;20271;-69
2023/02/20 07:43:15;;;;;;;6.13;2.30;;;6.00;99.10;;;;;;4161479;28;20017;-64
2023/02/20 07:45:16;;;;;;;9.83;2.87;;;6.10;99.00;;;;;;4161969;28;20282;-62
2023/02/20 07:47:17;;;;;;;4.90;2.00;;;6.10;99.50;;;;;;4161529;28;20267;-67
2023/02/20 07:49:19;;;;;;;6.27;2.03;;;6.20;98.50;;;;;;4161571;28;20502;-63
2023/02/20 07:51:20;;;;;;;6.47;3.03;;;6.10;98.20;;;;;;4161677;28;20610;-62
2023/02/20 07:53:21;;;;;;;4.07;2.07;;;6.20;97.20;;;;;;4161123;28;20045;-63
2023/02/20 07:55:22;;;;;;;6.23;2.57;;;6.00;98.10;;;;;;4162028;28;20571;-63
2023/02/20 07:57:23;;;;;;;8.67;4.57;;;6.00;98.50;;;;;;4161037;28;20079;-62
2023/02/20 07:59:24;;;;;;;13.63;7.83;;;6.00;98.00;;;;;;4162781;28;20829;-63
2023/02/20 08:01:25;;;;;;;12.10;5.53;;;6.00;98.20;;;;;;4160994;28;20160;-63
2023/02/20 08:03:27;;;;;;;8.43;5.13;;;6.20;98.70;;;;;;4162100;28;20045;-65
2023/02/20 08:05:29;;;;;;;6.97;2.17;;;6.50;98.00;;;;;;4160897;28;20037;-66
2023/02/20 08:07:30;;;;;;;5.47;2.00;;;6.50;97.70;;;;;;4161489;28;20084;-63
2023/02/20 08:09:31;;;;;;;5.23;3.57;;;6.50;97.00;;;;;;4160897;28;20989;-65
2023/02/20 08:11:36;;;;;;;7.83;2.03;;;7.10;97.60;;;;;;4162170;28;20037;-63
2023/02/20 08:13:37;;;;;;;5.60;2.97;;;7.10;95.50;;;;;;4161007;28;20029;-65
2023/02/20 08:15:40;;;;;;;6.00;2.30;;;7.10;95.90;;;;;;4161632;28;20449;-63
2023/02/20 08:17:41;;;;;;;3.83;1.50;;;7.00;96.70;;;;;;4160972;28;20041;-62
2023/02/20 08:19:42;;;;;;;6.70;1.77;;;6.90;96.10;;;;;;4161514;28;20037;-71
2023/02/20 08:21:43;;;;;;;7.43;2.20;;;7.00;95.70;;;;;;4160818;28;20377;-62
2023/02/20 08:23:46;;;;;;;8.00;2.70;;;7.00;96.10;;;;;;4161174;28;20025;-64
2023/02/20 08:25:47;;;;;;;5.67;2.10;;;7.20;96.00;;;;;;4161079;28;20436;-64
2023/02/20 08:27:49;;;;;;;5.97;2.00;;;7.30;95.50;;;;;;4160695;28;20144;-65
2023/02/20 08:29:50;;;;;;;7.70;4.03;;;7.50;95.20;;;;;;4162311;28;20072;-70
2023/02/20 08:31:51;;;;;;;8.40;4.00;;;7.50;94.70;;;;;;4160898;28;20454;-68
2023/02/20 08:33:52;;;;;;;13.63;7.53;;;7.30;94.70;;;;;;4161833;28;20498;-68
2023/02/20 08:35:54;;;;;;;4.53;2.40;;;7.30;94.70;;;;;;4160165;28;20049;-65
2023/02/20 08:37:55;;;;;;;6.40;2.70;;;7.30;94.80;;;;;;4161296;28;20037;-70
2023/02/20 08:39:56;;;;;;;5.53;2.43;;;7.50;94.60;;;;;;4160439;28;20037;-70
2023/02/20 08:41:58;;;;;;;8.00;3.63;;;7.50;94.30;;;;;;4161718;28;20099;-65
2023/02/20 08:43:59;;;;;;;4.30;2.10;;;7.80;94.50;;;;;;4142313;28;20125;-65
2023/02/20 08:46:00;;;;;;;8.43;2.80;;;7.90;93.90;;;;;;4160635;28;20045;-67
2023/02/20 08:48:02;;;;;;;16.23;4.27;;;8.10;94.20;;;;;;4160510;28;20489;-68
2023/02/20 08:50:04;;;;;;;5.70;3.17;;;8.50;93.80;;;;;;4160944;28;20037;-64
2023/02/20 08:52:05;;;;;;;7.40;2.53;;;8.30;93.00;;;;;;4160567;28;20083;-68
2023/02/20 08:54:06;;;;;;;6.83;2.83;;;8.50;93.20;;;;;;4160749;28;20029;-67
2023/02/20 08:56:08;;;;;;;5.23;1.93;;;8.60;92.90;;;;;;4161055;28;20065;-65
2023/02/20 08:58:10;;;;;;;4.13;1.50;;;8.60;92.90;;;;;;4160232;28;20075;-65
2023/02/20 09:00:13;;;;;;;2.87;1.27;;;8.70;92.80;;;;;;4161930;28;20469;-65
2023/02/20 09:02:23;;;;;;;5.27;2.37;;;8.80;92.40;;;;;;4160027;28;20441;-63
2023/02/20 09:04:24;;;;;;;6.97;1.90;;;8.60;91.50;;;;;;4161535;28;20076;-64
2023/02/20 09:06:27;;;;;;;4.60;2.13;;;8.50;91.70;;;;;;4159945;28;20379;-64
2023/02/20 09:08:28;;;;;;;4.73;1.83;;;8.30;91.90;;;;;;4160943;28;20095;-64
2023/02/20 09:10:30;;;;;;;2.33;1.30;;;8.20;92.00;;;;;;4159903;28;20041;-63
2023/02/20 09:12:31;;;;;;;5.57;1.77;;;8.20;91.90;;;;;;4161408;28;20091;-64
2023/02/20 09:14:32;;;;;;;7.63;1.80;;;8.20;91.40;;;;;;4159965;28;20050;-64
2023/02/20 09:16:34;;;;;;;2.93;1.40;;;8.10;91.40;;;;;;4161209;28;20072;-64
2023/02/20 09:18:35;;;;;;;1.33;0.90;;;8.40;91.50;;;;;;4160033;28;20386;-63
2023/02/20 09:20:36;;;;;;;6.73;1.57;;;8.30;91.30;;;;;;4161214;28;20071;-63
2023/02/20 09:22:38;;;;;;;5.67;1.73;;;8.10;90.80;;;;;;4159942;28;20490;-64
2023/02/20 09:24:40;;;;;;;11.87;2.80;;;7.90;90.80;;;;;;4160886;28;20091;-69
2023/02/20 09:26:42;;;;;;;3.77;1.93;;;7.90;90.90;;;;;;4160527;28;20025;-64
2023/02/20 09:28:43;;;;;;;3.07;1.40;;;7.80;91.10;;;;;;4160542;28;20087;-65
2023/02/20 09:30:44;;;;;;;5.77;1.40;;;7.70;90.70;;;;;;4161099;28;20076;-65
2023/02/20 09:32:46;;;;;;;6.17;1.63;;;7.40;90.80;;;;;;4159904;28;20144;-64
2023/02/20 09:34:47;;;;;;;3.83;1.70;;;7.40;91.00;;;;;;4160894;28;20042;-63
2023/02/20 09:36:48;;;;;;;2.13;1.03;;;7.30;90.90;;;;;;4159663;28;20029;-64
2023/02/20 09:38:49;;;;;;;3.13;1.17;;;7.40;91.10;;;;;;4160892;28;20470;-64
2023/02/20 09:40:55;;;;;;;2.70;1.20;;;7.40;91.20;;;;;;4159754;28;20049;-64
2023/02/20 09:43:06;;;;;;;2.47;1.00;;;7.60;91.20;;;;;;4160975;28;20490;-64
2023/02/20 09:45:17;;;;;;;4.00;1.20;;;7.80;90.70;;;;;;4159857;28;20080;-62
2023/02/20 09:47:37;;;;;;;2.95;1.00;;;7.60;90.30;;;;;;4161054;28;20428;-63
2023/02/20 09:49:38;;;;;;;3.92;1.05;;;7.50;89.60;;;;;;4159038;28;20512;-62
2023/02/20 09:51:54;;;;;;;5.03;2.10;;;7.20;90.60;;;;;;4163306;28;20034;-64
2023/02/20 09:54:13;;;;;;;3.00;1.13;;;7.30;90.60;;;;;;4162742;28;20021;-64
2023/02/20 09:56:22;;;;;;;3.57;1.27;;;7.40;90.50;;;;;;4163802;28;20104;-65
2023/02/20 09:58:33;;;;;;;3.97;1.23;;;7.30;89.80;;;;;;4162483;28;20064;-62
2023/02/20 10:00:36;;;;;;;6.50;2.35;;;7.40;90.40;;;;;;4164110;28;20037;-63
2023/02/20 10:02:50;;;;;;;1.90;1.00;;;7.40;90.40;;;;;;4161199;28;20389;-64
2023/02/20 10:05:01;;;;;;;4.30;1.10;;;7.30;90.30;;;;;;4163717;28;20026;-65
2023/02/20 10:07:24;;;;;;;5.22;1.17;;;7.40;90.50;;;;;;4162463;28;20124;-63
2023/02/20 10:09:26;;;;;;;2.73;1.23;;;7.50;90.20;;;;;;4163337;28;20025;-68
2023/02/20 10:11:46;;;;;;;3.20;1.80;;;7.60;90.30;;;;;;4162266;28;20648;-64
2023/02/20 10:14:12;;;;;;;3.03;1.27;;;7.50;88.90;;;;;;4162950;28;20083;-64
2023/02/20 10:16:22;;;;;;;2.90;1.20;;;7.50;90.00;;;;;;4161921;28;20149;-64
2023/02/20 10:18:36;;;;;;;7.80;3.38;;;7.40;89.90;;;;;;4162888;28;20017;-63
2023/02/20 10:20:55;;;;;;;5.73;2.40;;;7.40;89.80;;;;;;4162793;28;20037;-63
2023/02/20 10:23:06;;;;;;;5.97;2.97;;;7.30;89.70;;;;;;4162455;28;20033;-66
2023/02/20 10:25:09;;;;;;;6.50;1.90;;;7.30;90.30;;;;;;4162880;28;20033;-64
2023/02/20 10:27:24;;;;;;;5.03;2.40;;;7.40;90.50;;;;;;4162744;28;20034;-64
2023/02/20 10:29:30;;;;;;;4.87;1.70;;;7.50;90.20;;;;;;4162905;28;20033;-63
2023/02/20 10:31:46;;;;;;;4.90;1.27;;;7.60;90.20;;;;;;4162949;28;20025;-63
2023/02/20 10:34:02;;;;;;;4.00;1.13;;;7.50;89.00;;;;;;4162597;28;20095;-68
2023/02/20 10:36:30;;;;;;;9.37;1.60;;;7.50;89.90;;;;;;4162057;28;20387;-66
2023/02/20 10:38:55;;;;;;;4.77;1.43;;;7.60;90.30;;;;;;4163449;28;20045;-64
2023/02/20 10:40:58;;;;;;;2.63;1.53;;;7.70;89.60;;;;;;4161984;28;20472;-63
2023/02/20 10:43:08;;;;;;;2.77;1.40;;;7.70;90.00;;;;;;4161770;28;20034;-62
2023/02/20 10:45:16;;;;;;;5.90;1.37;;;7.60;89.20;;;;;;4161979;28;20481;-62
2023/02/20 10:47:31;;;;;;;2.80;1.07;;;7.60;89.70;;;;;;4163191;28;20037;-63
2023/02/20 10:49:58;;;;;;;5.47;1.37;;;7.70;89.20;;;;;;4162149;28;20087;-63
2023/02/20 10:52:04;;;;;;;2.60;1.10;;;7.70;88.60;;;;;;4162845;28;20046;-70
2023/02/20 10:54:36;;;;;;;3.53;0.97;;;7.60;88.80;;;;;;4162061;28;20077;-68
2023/02/20 10:56:47;;;;;;;4.20;1.43;;;7.70;87.80;;;;;;4162892;28;20049;-64
2023/02/20 10:59:16;;;;;;;3.20;1.37;;;7.70;88.60;;;;;;4161872;28;20049;-64
2023/02/20 11:01:23;;;;;;;3.40;1.10;;;7.70;88.70;;;;;;4162825;28;20033;-64
2023/02/20 11:03:36;;;;;;;5.87;1.20;;;7.70;89.00;;;;;;4161627;28;20095;-69
2023/02/20 11:05:47;;;;;;;3.57;1.03;;;7.70;89.30;;;;;;4162974;28;20083;-69
2023/02/20 11:07:48;;;;;;;1.80;0.90;;;7.80;89.80;;;;;;4161318;28;20095;-64
2023/02/20 11:09:50;;;;;;;2.87;1.33;;;7.80;89.40;;;;;;4162709;28;20071;-69
2023/02/20 11:11:53;;;;;;;2.60;1.27;;;7.70;89.10;;;;;;4161663;28;20022;-64
2023/02/20 11:13:56;;;;;;;5.23;1.83;;;7.70;89.70;;;;;;4162551;28;20029;-63
2023/02/20 11:15:58;;;;;;;6.73;2.30;;;7.80;89.70;;;;;;4161676;28;20083;-63
2023/02/20 11:17:59;;;;;;;5.37;1.87;;;7.90;88.90;;;;;;4162795;28;20114;-66